sensor_id;sensor_type;location;lat;lon;timestamp;temperature;humidity
73875;HTU21D;62209;47.568;7.558;2022-10-31T00:06:45;12.92;104.95
73875;HTU21D;62209;47.568;7.558;2022-10-31T00:21:52;12.77;105.46
73875;HTU21D;62209;47.568;7.558;2022-10-31T00:36:58;12.70;105.36
73875;HTU21D;62209;47.568;7.558;2022-10-31T00:52:03;12.70;105.11
73875;HTU21D;62209;47.568;7.558;2022-10-31T01:07:09;12.64;105.47
73875;HTU21D;62209;47.568;7.558;2022-10-31T01:22:17;12.52;104.88
73875;HTU21D;62209;47.568;7.558;2022-10-31T01:37:22;12.44;105.70
73875;HTU21D;62209;47.568;7.558;2022-10-31T01:52:29;12.37;105.76
73875;HTU21D;62209;47.568;7.558;2022-10-31T02:07:38;12.41;105.61
73875;HTU21D;62209;47.568;7.558;2022-10-31T02:22:53;12.32;105.79
73875;HTU21D;62209;47.568;7.558;2022-10-31T02:38:24;12.28;105.72
73875;HTU21D;62209;47.568;7.558;2022-10-31T02:53:37;12.16;105.83
73875;HTU21D;62209;47.568;7.558;2022-10-31T03:08:44;12.12;105.36
73875;HTU21D;62209;47.568;7.558;2022-10-31T03:23:56;12.01;105.95
73875;HTU21D;62209;47.568;7.558;2022-10-31T03:39:04;11.97;105.53
73875;HTU21D;62209;47.568;7.558;2022-10-31T03:54:15;11.89;105.98
73875;HTU21D;62209;47.568;7.558;2022-10-31T04:09:26;11.93;105.82
73875;HTU21D;62209;47.568;7.558;2022-10-31T04:24:33;11.94;105.70
73875;HTU21D;62209;47.568;7.558;2022-10-31T04:39:38;11.88;105.95
73875;HTU21D;62209;47.568;7.558;2022-10-31T04:54:44;11.78;106.30
73875;HTU21D;62209;47.568;7.558;2022-10-31T05:09:49;11.59;106.31
73875;HTU21D;62209;47.568;7.558;2022-10-31T05:24:55;11.46;106.61
73875;HTU21D;62209;47.568;7.558;2022-10-31T05:40:01;11.41;106.43
73875;HTU21D;62209;47.568;7.558;2022-10-31T05:55:10;11.42;106.82
73875;HTU21D;62209;47.568;7.558;2022-10-31T06:10:16;11.52;106.98
73875;HTU21D;62209;47.568;7.558;2022-10-31T06:25:22;11.70;106.64
73875;HTU21D;62209;47.568;7.558;2022-10-31T06:40:28;11.79;106.27
73875;HTU21D;62209;47.568;7.558;2022-10-31T06:55:34;11.94;106.02
73875;HTU21D;62209;47.568;7.558;2022-10-31T07:10:40;12.23;104.79
73875;HTU21D;62209;47.568;7.558;2022-10-31T07:25:47;12.34;104.36
73875;HTU21D;62209;47.568;7.558;2022-10-31T07:40:52;12.56;103.70
73875;HTU21D;62209;47.568;7.558;2022-10-31T07:55:58;12.77;103.11
73875;HTU21D;62209;47.568;7.558;2022-10-31T08:11:04;13.02;102.60
73875;HTU21D;62209;47.568;7.558;2022-10-31T08:26:10;13.27;101.41
73875;HTU21D;62209;47.568;7.558;2022-10-31T08:41:15;13.49;100.88
73875;HTU21D;62209;47.568;7.558;2022-10-31T08:56:21;13.91;99.98
73875;HTU21D;62209;47.568;7.558;2022-10-31T09:11:27;14.60;98.64
73875;HTU21D;62209;47.568;7.558;2022-10-31T09:26:35;14.81;97.55
73875;HTU21D;62209;47.568;7.558;2022-10-31T09:41:48;15.01;96.94
73875;HTU21D;62209;47.568;7.558;2022-10-31T09:57:05;15.06;96.74
73875;HTU21D;62209;47.568;7.558;2022-10-31T10:12:18;15.49;96.36
73875;HTU21D;62209;47.568;7.558;2022-10-31T10:27:36;17.28;93.14
73875;HTU21D;62209;47.568;7.558;2022-10-31T10:42:53;17.76;90.44
73875;HTU21D;62209;47.568;7.558;2022-10-31T10:58:21;18.36;86.49
73875;HTU21D;62209;47.568;7.558;2022-10-31T11:13:28;18.68;86.83
73875;HTU21D;62209;47.568;7.558;2022-10-31T11:28:34;19.22;85.99
73875;HTU21D;62209;47.568;7.558;2022-10-31T11:43:45;19.85;85.35
73875;HTU21D;62209;47.568;7.558;2022-10-31T11:58:57;20.06;84.14
73875;HTU21D;62209;47.568;7.558;2022-10-31T12:14:08;20.32;84.98
73875;HTU21D;62209;47.568;7.558;2022-10-31T12:29:24;20.22;84.20
73875;HTU21D;62209;47.568;7.558;2022-10-31T13:00:18;20.80;82.75
73875;HTU21D;62209;47.568;7.558;2022-10-31T13:15:32;21.24;81.22
73875;HTU21D;62209;47.568;7.558;2022-10-31T13:30:43;21.01;83.23
73875;HTU21D;62209;47.568;7.558;2022-10-31T13:45:50;21.10;81.97
73875;HTU21D;62209;47.568;7.558;2022-10-31T14:01:01;21.23;81.55
73875;HTU21D;62209;47.568;7.558;2022-10-31T14:16:19;20.94;80.72
73875;HTU21D;62209;47.568;7.558;2022-10-31T14:31:29;20.96;82.08
73875;HTU21D;62209;47.568;7.558;2022-10-31T14:46:41;20.71;81.14
73875;HTU21D;62209;47.568;7.558;2022-10-31T15:01:56;19.97;85.09
73875;HTU21D;62209;47.568;7.558;2022-10-31T15:17:03;19.51;87.19
73875;HTU21D;62209;47.568;7.558;2022-10-31T15:32:15;18.69;87.91
73875;HTU21D;62209;47.568;7.558;2022-10-31T15:47:25;18.00;90.21
73875;HTU21D;62209;47.568;7.558;2022-10-31T16:02:35;17.33;93.30
73875;HTU21D;62209;47.568;7.558;2022-10-31T16:17:41;17.00;94.66
73875;HTU21D;62209;47.568;7.558;2022-10-31T16:32:56;16.63;95.43
73875;HTU21D;62209;47.568;7.558;2022-10-31T16:48:05;16.19;96.94
73875;HTU21D;62209;47.568;7.558;2022-10-31T17:03:15;15.83;97.34
73875;HTU21D;62209;47.568;7.558;2022-10-31T17:18:21;15.28;98.48
73875;HTU21D;62209;47.568;7.558;2022-10-31T17:33:29;14.98;98.82
73875;HTU21D;62209;47.568;7.558;2022-10-31T17:48:35;14.60;101.32
73875;HTU21D;62209;47.568;7.558;2022-10-31T18:03:41;14.25;100.71
73875;HTU21D;62209;47.568;7.558;2022-10-31T18:18:50;14.24;101.77
73875;HTU21D;62209;47.568;7.558;2022-10-31T18:33:57;13.62;103.97
73875;HTU21D;62209;47.568;7.558;2022-10-31T18:49:03;13.44;103.45
73875;HTU21D;62209;47.568;7.558;2022-10-31T19:04:09;13.98;102.51
73875;HTU21D;62209;47.568;7.558;2022-10-31T19:19:16;14.00;103.50
73875;HTU21D;62209;47.568;7.558;2022-10-31T19:34:23;13.93;102.99
73875;HTU21D;62209;47.568;7.558;2022-10-31T19:49:28;13.92;103.41
73875;HTU21D;62209;47.568;7.558;2022-10-31T20:04:34;13.93;102.99
73875;HTU21D;62209;47.568;7.558;2022-10-31T20:19:40;13.88;103.73
73875;HTU21D;62209;47.568;7.558;2022-10-31T20:34:46;14.01;104.20
73875;HTU21D;62209;47.568;7.558;2022-10-31T20:49:52;14.04;103.70
73875;HTU21D;62209;47.568;7.558;2022-10-31T21:04:57;13.97;103.50
73875;HTU21D;62209;47.568;7.558;2022-10-31T21:20:04;13.90;103.13
73875;HTU21D;62209;47.568;7.558;2022-10-31T21:35:12;13.91;103.09
73875;HTU21D;62209;47.568;7.558;2022-10-31T21:50:18;14.01;102.24
73875;HTU21D;62209;47.568;7.558;2022-10-31T22:05:24;13.97;102.73
73875;HTU21D;62209;47.568;7.558;2022-10-31T22:20:31;13.99;102.31
73875;HTU21D;62209;47.568;7.558;2022-10-31T22:35:36;14.05;102.46
73875;HTU21D;62209;47.568;7.558;2022-10-31T22:50:42;14.09;102.32
73875;HTU21D;62209;47.568;7.558;2022-10-31T23:05:54;14.24;101.96
73875;HTU21D;62209;47.568;7.558;2022-10-31T23:21:00;14.33;101.54
73875;HTU21D;62209;47.568;7.558;2022-10-31T23:36:08;14.28;101.70
73875;HTU21D;62209;47.568;7.558;2022-10-31T23:51:13;14.21;102.06
